createdAt,value
2022-12-23T00:01:51.705Z,6.07
2022-12-23T00:04:18.653Z,6.10
2022-12-23T00:06:45.890Z,6.70
2022-12-23T00:09:13.093Z,6.87
2022-12-23T00:12:00.095Z,6.83
2022-12-23T00:14:45.983Z,7.60
2022-12-23T00:17:22.935Z,6.67
2022-12-23T00:19:50.878Z,7.73
2022-12-23T00:22:17.775Z,7.70
2022-12-23T00:24:44.645Z,8.67
2022-12-23T00:27:11.575Z,7.80
2022-12-23T00:29:38.530Z,10.23
2022-12-23T00:32:05.930Z,9.40
2022-12-23T00:34:32.802Z,8.07
2022-12-23T00:36:59.684Z,9.80
2022-12-23T00:40:06.545Z,8.80
2022-12-23T00:42:52.629Z,7.90
2022-12-23T00:45:19.603Z,8.17
2022-12-23T00:48:06.479Z,8.37
2022-12-23T00:50:36.448Z,8.03
2022-12-23T00:53:04.204Z,8.27
2022-12-23T00:55:31.248Z,7.00
2022-12-23T00:57:58.751Z,8.30
2022-12-23T01:00:44.322Z,8.70
2022-12-23T01:03:32.997Z,8.10
2022-12-23T01:06:04.061Z,7.47
2022-12-23T01:08:30.993Z,8.50
2022-12-23T01:11:02.879Z,8.37
2022-12-23T01:13:30.070Z,8.60
2022-12-23T01:16:06.746Z,8.67
2022-12-23T01:18:36.595Z,9.80
2022-12-23T01:21:09.085Z,9.63
2022-12-23T01:23:37.029Z,9.40
2022-12-23T01:26:06.141Z,9.67
2022-12-23T01:28:34.001Z,9.70
2022-12-23T01:31:02.463Z,9.40
2022-12-23T01:33:29.600Z,10.37
2022-12-23T01:36:04.573Z,9.40
2022-12-23T01:38:31.734Z,9.27
2022-12-23T01:40:58.987Z,10.23
2022-12-23T01:43:46.054Z,10.80
2022-12-23T01:46:13.081Z,9.70
2022-12-23T01:48:41.780Z,9.73
2022-12-23T01:51:20.184Z,10.30
2022-12-23T01:53:52.228Z,10.83
2022-12-23T01:56:24.175Z,10.57
2022-12-23T01:58:53.163Z,10.17
2022-12-23T02:01:39.502Z,12.17
2022-12-23T02:04:09.616Z,11.83
2022-12-23T02:06:58.628Z,10.67
2022-12-23T02:09:34.985Z,10.33
2022-12-23T02:12:17.232Z,9.70
2022-12-23T02:15:15.040Z,10.77
2022-12-23T02:17:41.880Z,11.23
2022-12-23T02:20:39.862Z,11.10
2022-12-23T02:23:32.832Z,12.20
2022-12-23T02:26:46.582Z,12.80
2022-12-23T02:29:37.886Z,12.70
2022-12-23T02:32:10.908Z,12.57
2022-12-23T02:34:49.725Z,11.93
2022-12-23T02:37:33.180Z,12.60
2022-12-23T02:40:28.436Z,12.67
2022-12-23T02:43:30.775Z,12.00
2022-12-23T02:46:06.764Z,13.07
2022-12-23T02:48:44.551Z,11.63
2022-12-23T02:51:15.890Z,13.87
2022-12-23T02:54:05.108Z,12.93
2022-12-23T02:56:35.209Z,13.07
2022-12-23T02:59:22.977Z,12.57
2022-12-23T03:01:50.869Z,12.80
2022-12-23T03:04:18.017Z,12.37
2022-12-23T03:06:48.493Z,12.90
2022-12-23T03:09:36.189Z,13.87
2022-12-23T03:12:32.068Z,13.67
2022-12-23T03:15:14.547Z,12.40
2022-12-23T03:18:05.273Z,12.90
2022-12-23T03:20:50.628Z,13.80
2022-12-23T03:23:32.797Z,13.50
2022-12-23T03:26:33.425Z,13.70
2022-12-23T03:29:15.793Z,13.90
2022-12-23T03:31:44.119Z,14.83
2022-12-23T03:34:18.764Z,13.97
2022-12-23T03:36:56.787Z,14.07
2022-12-23T03:39:29.782Z,15.27
2022-12-23T03:42:05.803Z,15.47
2022-12-23T03:44:51.784Z,15.47
2022-12-23T03:47:35.764Z,15.67
2022-12-23T03:50:11.362Z,15.63
2022-12-23T03:52:44.120Z,16.70
2022-12-23T03:55:22.145Z,15.90
2022-12-23T03:57:56.049Z,15.80
2022-12-23T04:00:23.133Z,17.40
2022-12-23T04:03:01.375Z,15.33
2022-12-23T04:05:30.341Z,14.63
2022-12-23T04:08:14.753Z,15.10
2022-12-23T04:10:42.287Z,15.57
2022-12-23T04:13:09.263Z,13.63
2022-12-23T04:15:41.399Z,13.93
2022-12-23T04:18:10.368Z,13.83
2022-12-23T04:20:37.441Z,13.43
2022-12-23T04:23:04.569Z,14.50
2022-12-23T04:25:31.472Z,14.60
2022-12-23T04:27:58.356Z,14.10
2022-12-23T04:30:29.630Z,13.77
2022-12-23T04:32:58.562Z,13.10
2022-12-23T04:35:25.449Z,14.90
2022-12-23T04:37:52.309Z,15.70
2022-12-23T04:40:19.410Z,14.53
2022-12-23T04:42:46.264Z,16.23
2022-12-23T04:45:13.233Z,14.40
2022-12-23T04:47:40.723Z,15.63
2022-12-23T04:50:08.658Z,14.20
2022-12-23T04:52:35.565Z,16.13
2022-12-23T04:55:02.488Z,14.20
2022-12-23T04:57:29.399Z,14.40
2022-12-23T04:59:56.294Z,14.37
2022-12-23T05:02:23.393Z,13.30
2022-12-23T05:04:50.707Z,13.60
2022-12-23T05:07:17.640Z,14.50
2022-12-23T05:09:44.603Z,15.40
2022-12-23T05:12:12.019Z,15.00
2022-12-23T05:14:38.984Z,12.60
2022-12-23T05:17:07.856Z,14.07
2022-12-23T05:19:35.169Z,13.00
2022-12-23T05:22:02.499Z,14.03
2022-12-23T05:24:29.344Z,14.50
2022-12-23T05:27:00.136Z,15.47
2022-12-23T05:29:27.641Z,13.70
2022-12-23T05:31:54.581Z,14.27
2022-12-23T05:34:21.934Z,13.40
2022-12-23T05:36:48.943Z,14.13
2022-12-23T05:39:16.246Z,14.93
2022-12-23T05:41:43.194Z,13.37
2022-12-23T05:44:10.198Z,13.50
2022-12-23T05:46:37.164Z,12.60
2022-12-23T05:49:04.083Z,15.13
2022-12-23T05:51:31.022Z,13.47
2022-12-23T05:53:57.964Z,13.27
2022-12-23T05:56:25.018Z,12.97
2022-12-23T05:58:52.309Z,13.77
2022-12-23T06:01:19.231Z,13.00
2022-12-23T06:03:46.295Z,14.10
2022-12-23T06:06:13.422Z,12.90
2022-12-23T06:08:40.392Z,12.00
2022-12-23T06:11:07.307Z,12.20
2022-12-23T06:13:34.258Z,12.50
2022-12-23T06:16:01.598Z,11.97
2022-12-23T06:18:28.603Z,13.17
2022-12-23T06:20:55.887Z,12.83
2022-12-23T06:23:23.024Z,12.70
2022-12-23T06:25:50.082Z,12.30
2022-12-23T06:28:17.619Z,12.90
2022-12-23T06:30:44.501Z,12.20
2022-12-23T06:33:11.526Z,11.60
2022-12-23T06:35:38.539Z,12.37
2022-12-23T06:38:10.332Z,13.47
2022-12-23T06:40:38.802Z,13.03
2022-12-23T06:43:05.662Z,12.00
2022-12-23T06:45:32.631Z,12.93
2022-12-23T06:47:59.612Z,13.00
2022-12-23T06:50:26.499Z,12.20
2022-12-23T06:52:53.804Z,13.00
2022-12-23T06:55:20.631Z,12.20
2022-12-23T06:57:47.517Z,13.23
2022-12-23T07:00:15.098Z,11.83
2022-12-23T07:02:42.205Z,13.43
2022-12-23T07:05:09.600Z,12.70
2022-12-23T07:07:36.962Z,12.10
2022-12-23T07:10:04.242Z,13.43
2022-12-23T07:12:31.130Z,13.23
2022-12-23T07:14:58.016Z,13.33
2022-12-23T07:17:25.207Z,13.03
2022-12-23T07:19:52.765Z,13.13
2022-12-23T07:22:21.058Z,12.97
2022-12-23T07:24:47.928Z,15.30
2022-12-23T07:27:14.853Z,12.37
2022-12-23T07:29:42.271Z,13.10
2022-12-23T07:32:09.198Z,13.93
2022-12-23T07:34:36.637Z,14.43
2022-12-23T07:37:03.523Z,13.63
2022-12-23T07:39:30.918Z,13.03
2022-12-23T07:44:44.945Z,14.00
2022-12-23T07:47:11.882Z,13.27
2022-12-23T07:49:38.808Z,13.63
2022-12-23T07:52:05.723Z,14.07
2022-12-23T07:54:32.607Z,12.27
2022-12-23T07:56:59.726Z,13.60
2022-12-23T07:59:27.616Z,13.30
2022-12-23T08:01:54.629Z,13.57
2022-12-23T08:04:21.895Z,13.17
2022-12-23T08:06:49.135Z,11.50
2022-12-23T08:09:16.017Z,10.60
2022-12-23T08:11:43.572Z,11.40
2022-12-23T08:14:10.573Z,10.40
2022-12-23T08:16:43.397Z,9.20
2022-12-23T08:19:10.959Z,10.27
2022-12-23T08:21:37.887Z,10.53
2022-12-23T08:24:04.970Z,10.30
2022-12-23T08:26:32.970Z,9.90
2022-12-23T08:29:00.983Z,10.00
2022-12-23T08:31:32.039Z,10.00
2022-12-23T08:34:00.618Z,9.30
2022-12-23T08:36:33.840Z,10.90
2022-12-23T08:39:07.220Z,12.47
2022-12-23T08:41:37.584Z,11.57
2022-12-23T08:44:04.671Z,12.00
2022-12-23T08:46:31.760Z,11.50
2022-12-23T08:48:58.801Z,13.50
2022-12-23T08:51:27.080Z,14.50
2022-12-23T08:54:01.066Z,17.53
2022-12-23T08:56:31.539Z,17.37
2022-12-23T08:58:58.972Z,17.60
2022-12-23T09:01:29.377Z,18.23
2022-12-23T09:03:57.185Z,20.60
2022-12-23T09:06:29.954Z,18.73
2022-12-23T09:08:58.093Z,20.40
2022-12-23T09:11:27.771Z,18.77
2022-12-23T09:13:56.105Z,20.33
2022-12-23T09:16:24.080Z,19.43
2022-12-23T09:18:51.221Z,18.13
2022-12-23T09:21:20.753Z,17.40
2022-12-23T09:23:48.255Z,16.80
2022-12-23T09:26:33.821Z,18.33
2022-12-23T09:29:00.869Z,18.17
2022-12-23T09:31:35.896Z,18.13
2022-12-23T09:34:04.115Z,17.87
2022-12-23T09:36:31.235Z,18.10
2022-12-23T09:38:58.862Z,17.47
2022-12-23T09:41:34.705Z,16.77
2022-12-23T09:44:32.467Z,18.50
2022-12-23T09:47:02.476Z,18.17
2022-12-23T09:49:30.250Z,18.80
2022-12-23T09:52:06.787Z,18.53
2022-12-23T09:54:45.963Z,18.00
2022-12-23T09:57:23.284Z,17.13
2022-12-23T10:00:16.881Z,18.70
2022-12-23T10:03:08.714Z,17.40
2022-12-23T10:06:14.354Z,17.93
2022-12-23T10:08:50.407Z,18.20
2022-12-23T10:11:20.272Z,19.27
2022-12-23T10:13:51.420Z,19.13
2022-12-23T10:16:25.763Z,18.43
2022-12-23T10:19:03.538Z,18.00
2022-12-23T10:21:32.181Z,19.47
2022-12-23T10:24:05.146Z,18.53
2022-12-23T10:26:37.025Z,17.10
2022-12-23T10:29:19.390Z,16.93
2022-12-23T10:32:17.184Z,16.70
2022-12-23T10:34:58.326Z,16.90
2022-12-23T10:37:34.210Z,16.70
2022-12-23T10:40:17.737Z,16.53
2022-12-23T10:42:50.882Z,16.13
2022-12-23T10:45:23.773Z,16.40
2022-12-23T10:48:19.965Z,14.80
2022-12-23T10:51:04.435Z,14.80
2022-12-23T10:53:37.413Z,14.90
2022-12-23T10:56:06.802Z,15.13
2022-12-23T10:58:42.232Z,14.43
2022-12-23T11:01:18.909Z,14.10
2022-12-23T11:04:04.032Z,14.93
2022-12-23T11:06:37.638Z,13.87
2022-12-23T11:09:06.298Z,14.93
2022-12-23T11:11:54.967Z,14.40
2022-12-23T11:14:31.452Z,14.07
2022-12-23T11:16:58.493Z,13.90
2022-12-23T11:19:26.822Z,13.40
2022-12-23T11:21:59.548Z,12.80
2022-12-23T11:24:39.586Z,12.47
2022-12-23T11:27:14.051Z,13.37
2022-12-23T11:29:48.109Z,12.77
2022-12-23T11:32:25.302Z,12.13
2022-12-23T11:34:52.529Z,13.60
2022-12-23T11:37:42.317Z,13.20
2022-12-23T11:40:25.840Z,12.83
2022-12-23T11:43:14.617Z,13.83
2022-12-23T11:45:41.757Z,14.47
2022-12-23T11:48:28.486Z,13.47
2022-12-23T11:51:03.706Z,14.93
2022-12-23T11:53:31.415Z,15.47
2022-12-23T11:56:11.692Z,13.07
2022-12-23T11:58:50.168Z,13.30
2022-12-23T12:01:20.387Z,13.90
2022-12-23T12:03:55.694Z,12.57
2022-12-23T12:06:23.399Z,11.80
2022-12-23T12:08:53.293Z,13.63
2022-12-23T12:11:44.411Z,12.50
2022-12-23T12:14:24.788Z,12.70
2022-12-23T12:17:29.720Z,11.53
2022-12-23T12:20:02.814Z,12.97
2022-12-23T12:22:45.105Z,12.70
2022-12-23T12:25:20.796Z,12.53
2022-12-23T12:28:00.644Z,13.13
2022-12-23T12:30:34.780Z,11.33
2022-12-23T12:33:13.989Z,11.97
2022-12-23T12:35:43.757Z,11.27
2022-12-23T12:38:33.983Z,11.43
2022-12-23T12:41:29.023Z,11.97
2022-12-23T12:44:16.342Z,10.60
2022-12-23T12:47:15.868Z,11.60
2022-12-23T12:50:00.110Z,12.63
2022-12-23T12:52:28.727Z,10.57
2022-12-23T12:55:01.468Z,11.40
2022-12-23T12:57:29.728Z,11.47
2022-12-23T13:00:05.690Z,10.83
2022-12-23T13:03:04.682Z,10.93
2022-12-23T13:05:54.148Z,11.17
2022-12-23T13:08:52.312Z,10.33
2022-12-23T13:11:23.349Z,10.90
2022-12-23T13:14:17.701Z,12.60
2022-12-23T13:16:54.382Z,14.00
2022-12-23T13:19:32.011Z,13.63
2022-12-23T13:22:11.626Z,12.70
2022-12-23T13:25:05.651Z,13.97
2022-12-23T13:27:46.629Z,12.70
2022-12-23T13:30:23.688Z,12.20
2022-12-23T13:33:07.079Z,11.93
2022-12-23T13:36:06.168Z,12.20
2022-12-23T13:38:52.436Z,11.67
2022-12-23T13:41:41.550Z,11.70
2022-12-23T13:44:18.217Z,10.60
2022-12-23T13:47:13.526Z,9.93
2022-12-23T13:50:01.866Z,9.20
2022-12-23T13:52:37.992Z,9.30
2022-12-23T13:55:39.143Z,8.90
2022-12-23T13:58:18.512Z,9.20
2022-12-23T14:00:45.933Z,9.13
2022-12-23T14:03:23.666Z,8.97
2022-12-23T14:05:52.819Z,8.83
2022-12-23T14:08:19.749Z,9.10
2022-12-23T14:11:00.784Z,7.33
2022-12-23T14:13:30.629Z,8.03
2022-12-23T14:16:16.415Z,6.63
2022-12-23T14:19:04.070Z,8.13
2022-12-23T14:21:46.253Z,7.90
2022-12-23T14:24:50.737Z,7.80
2022-12-23T14:27:40.452Z,7.27
2022-12-23T14:30:16.644Z,6.83
2022-12-23T14:33:06.228Z,5.90
2022-12-23T14:35:38.525Z,6.17
2022-12-23T14:38:15.684Z,6.40
2022-12-23T14:40:42.747Z,6.10
2022-12-23T14:43:19.095Z,6.80
2022-12-23T14:45:51.614Z,6.30
2022-12-23T14:48:33.892Z,5.70
2022-12-23T14:51:21.478Z,6.33
2022-12-23T14:53:52.178Z,5.50
2022-12-23T14:56:19.057Z,5.67
2022-12-23T14:58:52.351Z,5.37
2022-12-23T15:01:34.336Z,5.83
2022-12-23T15:04:26.558Z,5.50
2022-12-23T15:07:04.523Z,6.77
2022-12-23T15:09:37.361Z,6.40
2022-12-23T15:12:15.939Z,6.40
2022-12-23T15:15:05.134Z,7.03
2022-12-23T15:17:34.721Z,7.53
2022-12-23T15:20:10.312Z,8.03
2022-12-23T15:22:38.371Z,8.20
2022-12-23T15:25:06.353Z,8.40
2022-12-23T15:27:36.412Z,9.10
2022-12-23T15:30:03.854Z,8.40
2022-12-23T15:32:31.044Z,8.60
2022-12-23T15:35:05.851Z,9.17
2022-12-23T15:37:33.830Z,8.53
2022-12-23T15:40:09.924Z,8.40
2022-12-23T15:42:39.593Z,8.60
2022-12-23T15:45:29.757Z,9.00
2022-12-23T15:47:56.400Z,8.60
2022-12-23T15:50:23.643Z,8.50
2022-12-23T15:52:50.691Z,7.97
2022-12-23T15:55:25.238Z,9.27
2022-12-23T15:57:52.676Z,8.10
2022-12-23T16:00:22.657Z,8.77
2022-12-23T16:03:01.146Z,7.90
2022-12-23T16:05:35.995Z,7.60
2022-12-23T16:08:28.494Z,8.47
2022-12-23T16:11:13.812Z,8.70
2022-12-23T16:13:47.322Z,8.37
2022-12-23T16:16:19.741Z,9.73
2022-12-23T16:18:47.796Z,10.40
2022-12-23T16:21:15.260Z,10.33
2022-12-23T16:23:50.153Z,10.60
2022-12-23T16:26:16.870Z,10.60
2022-12-23T16:28:49.650Z,13.67
2022-12-23T16:31:18.592Z,15.17
2022-12-23T16:33:50.062Z,12.43
2022-12-23T16:36:28.991Z,12.80
2022-12-23T16:38:55.970Z,11.20
2022-12-23T16:41:22.925Z,11.40
2022-12-23T16:43:52.799Z,11.70
2022-12-23T16:46:21.685Z,12.70
2022-12-23T16:48:59.218Z,12.47
2022-12-23T16:51:27.972Z,10.90
2022-12-23T16:53:56.973Z,12.90
2022-12-23T16:56:27.867Z,12.57
2022-12-23T16:58:54.545Z,11.47
2022-12-23T17:01:37.039Z,11.90
2022-12-23T17:04:04.269Z,13.07
2022-12-23T17:06:31.229Z,13.40
2022-12-23T17:08:57.937Z,13.40
2022-12-23T17:11:34.412Z,16.10
2022-12-23T17:14:05.592Z,14.97
2022-12-23T17:16:33.781Z,14.17
2022-12-23T17:19:00.582Z,14.90
2022-12-23T17:21:31.188Z,14.13
2022-12-23T17:24:08.954Z,14.37
2022-12-23T17:26:35.772Z,14.43
2022-12-23T17:29:03.983Z,15.87
2022-12-23T17:31:32.624Z,14.80
2022-12-23T17:33:59.481Z,15.50
2022-12-23T17:36:26.193Z,16.43
2022-12-23T17:38:53.498Z,14.63
2022-12-23T17:41:29.815Z,14.17
2022-12-23T17:43:56.773Z,14.70
2022-12-23T17:46:24.260Z,13.50
2022-12-23T17:48:51.495Z,11.83
2022-12-23T17:51:23.269Z,11.37
2022-12-23T17:53:56.816Z,10.87
2022-12-23T17:56:26.375Z,9.83
2022-12-23T17:58:53.547Z,9.30
2022-12-23T18:01:29.684Z,8.83
2022-12-23T18:03:58.345Z,8.63
2022-12-23T18:06:27.400Z,8.10
2022-12-23T18:08:54.658Z,8.67
2022-12-23T18:11:35.917Z,8.60
2022-12-23T18:14:03.548Z,9.90
2022-12-23T18:16:30.842Z,9.00
2022-12-23T18:18:57.598Z,8.77
2022-12-23T18:21:27.096Z,9.13
2022-12-23T18:23:57.791Z,8.97
2022-12-23T18:26:25.012Z,7.57
2022-12-23T18:28:55.923Z,8.20
2022-12-23T18:31:24.451Z,7.33
2022-12-23T18:33:51.807Z,7.93
2022-12-23T18:36:28.983Z,8.90
2022-12-23T18:38:57.228Z,9.43
2022-12-23T18:41:26.247Z,9.80
2022-12-23T18:43:53.575Z,10.07
2022-12-23T18:46:21.564Z,11.53
2022-12-23T18:48:48.420Z,11.03
2022-12-23T18:51:17.539Z,12.10
2022-12-23T18:53:45.512Z,12.63
2022-12-23T18:56:17.022Z,11.10
2022-12-23T18:58:43.701Z,11.30
2022-12-23T19:01:15.475Z,10.37
2022-12-23T19:03:43.560Z,10.17
2022-12-23T19:06:14.278Z,9.70
2022-12-23T19:08:42.311Z,10.07
2022-12-23T19:11:15.257Z,9.47
2022-12-23T19:13:42.033Z,9.10
2022-12-23T19:16:13.947Z,8.20
2022-12-23T19:18:40.754Z,8.83
2022-12-23T19:21:09.178Z,8.00
2022-12-23T19:23:38.773Z,7.93
2022-12-23T19:26:06.177Z,8.10
2022-12-23T19:28:33.771Z,8.00
2022-12-23T19:31:00.404Z,8.10
2022-12-23T19:33:27.198Z,8.77
2022-12-23T19:35:53.807Z,7.23
2022-12-23T19:38:20.465Z,7.27
2022-12-23T19:40:57.680Z,7.60
2022-12-23T19:43:24.365Z,7.33
2022-12-23T19:46:03.694Z,6.80
2022-12-23T19:48:30.953Z,7.00
2022-12-23T19:51:02.277Z,7.90
2022-12-23T19:53:29.474Z,7.40
2022-12-23T19:56:05.358Z,7.87
2022-12-23T19:58:34.357Z,6.87
2022-12-23T20:01:15.248Z,6.53
2022-12-23T20:03:42.845Z,7.70
2022-12-23T20:06:21.961Z,6.87
2022-12-23T20:08:48.937Z,7.30
2022-12-23T20:11:21.570Z,7.20
2022-12-23T20:13:55.209Z,7.10
2022-12-23T20:16:23.192Z,6.77
2022-12-23T20:18:50.112Z,5.90
2022-12-23T20:21:17.091Z,8.50
2022-12-23T20:23:43.761Z,7.67
2022-12-23T20:26:12.445Z,8.57
2022-12-23T20:28:39.141Z,6.57
2022-12-23T20:31:20.721Z,6.63
2022-12-23T20:33:48.728Z,7.20
2022-12-23T20:36:17.326Z,6.20
2022-12-23T20:38:46.508Z,6.10
2022-12-23T20:41:16.010Z,6.40
2022-12-23T20:43:46.106Z,7.17
2022-12-23T20:46:21.831Z,6.00
2022-12-23T20:48:49.210Z,6.77
2022-12-23T20:51:25.976Z,6.47
2022-12-23T20:53:55.332Z,5.93
2022-12-23T20:56:27.388Z,5.47
2022-12-23T20:58:55.117Z,6.33
2022-12-23T21:01:25.581Z,5.60
2022-12-23T21:03:52.966Z,6.20
2022-12-23T21:06:20.627Z,5.77
2022-12-23T21:08:47.718Z,5.73
2022-12-23T21:11:14.997Z,5.23
2022-12-23T21:13:42.137Z,6.50
2022-12-23T21:16:11.387Z,5.77
2022-12-23T21:18:43.439Z,5.73
2022-12-23T21:21:11.716Z,5.70
2022-12-23T21:23:40.464Z,6.07
2022-12-23T21:26:12.291Z,6.10
2022-12-23T21:28:40.493Z,6.17
2022-12-23T21:31:08.481Z,6.10
2022-12-23T21:33:40.410Z,6.40
2022-12-23T21:36:08.774Z,7.50
2022-12-23T21:38:39.152Z,6.00
2022-12-23T21:41:09.687Z,5.83
2022-12-23T21:43:37.125Z,7.10
2022-12-23T21:46:10.143Z,6.90
2022-12-23T21:48:38.267Z,6.80
2022-12-23T21:51:21.251Z,7.53
2022-12-23T21:53:51.084Z,7.20
2022-12-23T21:56:30.227Z,7.60
2022-12-23T21:58:58.956Z,6.77
2022-12-23T22:01:26.707Z,7.10
2022-12-23T22:03:55.395Z,7.27
2022-12-23T22:06:24.682Z,7.00
2022-12-23T22:08:52.753Z,8.63
2022-12-23T22:11:22.615Z,7.60
2022-12-23T22:13:50.559Z,8.40
2022-12-23T22:16:23.029Z,7.00
2022-12-23T22:18:51.228Z,8.13
2022-12-23T22:21:20.417Z,7.50
2022-12-23T22:23:48.698Z,8.80
2022-12-23T22:26:24.515Z,7.47
2022-12-23T22:28:52.253Z,6.40
2022-12-23T22:31:34.276Z,6.37
2022-12-23T22:34:01.918Z,6.70
2022-12-23T22:36:29.327Z,6.20
2022-12-23T22:38:58.489Z,9.23
2022-12-23T22:41:28.099Z,6.10
2022-12-23T22:43:55.634Z,7.00
2022-12-23T22:46:22.983Z,6.67
2022-12-23T22:48:50.824Z,7.07
2022-12-23T22:51:21.234Z,8.10
2022-12-23T22:53:49.193Z,7.00
2022-12-23T22:56:17.879Z,8.40
2022-12-23T22:58:45.270Z,8.10
2022-12-23T23:01:24.508Z,8.00
2022-12-23T23:03:57.576Z,7.30
2022-12-23T23:06:33.538Z,8.87
2022-12-23T23:09:01.100Z,7.40
2022-12-23T23:11:28.922Z,8.70
2022-12-23T23:13:56.499Z,7.90
2022-12-23T23:16:25.443Z,7.70
2022-12-23T23:18:52.956Z,9.50
2022-12-23T23:21:20.368Z,8.90
2022-12-23T23:23:47.731Z,8.63
2022-12-23T23:26:15.797Z,6.50
2022-12-23T23:28:43.592Z,7.40
2022-12-23T23:33:58.310Z,7.07
2022-12-23T23:36:25.615Z,8.07
2022-12-23T23:38:52.718Z,7.57
2022-12-23T23:41:23.199Z,8.10
2022-12-23T23:43:51.187Z,8.80
2022-12-23T23:46:18.529Z,8.30
2022-12-23T23:48:45.494Z,8.70
2022-12-23T23:51:13.157Z,8.03
2022-12-23T23:53:40.392Z,8.13
2022-12-23T23:56:09.246Z,7.37
2022-12-23T23:58:37.465Z,8.47
